Time;durP1;ratioP1;P1;durP2;ratioP2;P2;SDS_P1;SDS_P2;PMS_P1;PMS_P2;Temp;Humidity;BMP_temperature;BMP_pressure;BME280_temperature;BME280_humidity;BME280_pressure;Samples;Min_cycle;Max_cycle;Signal;HPM_P1;HPM_P2
2021/04/10 00:00:27;;;;;;;;;;;3.00;99.90;;;;;;5056402;28;19915;-59
2021/04/10 00:02:53;;;;;;;;;;;2.80;99.90;;;;;;5057622;28;19967;-59
2021/04/10 00:05:20;;;;;;;;;;;2.90;99.90;;;;;;5060392;28;19999;-58
2021/04/10 00:07:46;;;;;;;;;;;2.70;99.90;;;;;;5060227;28;19909;-59
2021/04/10 00:10:12;;;;;;;;;;;2.70;99.90;;;;;;5064779;28;19946;-59
2021/04/10 00:12:38;;;;;;;;;;;2.80;99.90;;;;;;5062833;28;19936;-59
2021/04/10 00:15:05;;;;;;;;;;;2.80;99.90;;;;;;5070664;28;19909;-59
2021/04/10 00:17:31;;;;;;;;;;;2.80;99.90;;;;;;5073202;28;19912;-59
2021/04/10 00:19:57;;;;;;;;;;;2.70;99.90;;;;;;5071729;28;19963;-59
2021/04/10 00:22:23;;;;;;;;;;;2.80;99.90;;;;;;5063527;28;20369;-59
2021/04/10 00:24:49;;;;;;;;;;;2.80;99.90;;;;;;5064273;28;19963;-59
2021/04/10 00:27:15;;;;;;;;;;;2.80;99.90;;;;;;5055150;28;19967;-59
2021/04/10 00:29:41;;;;;;;;;;;2.60;99.90;;;;;;5057667;28;20412;-59
2021/04/10 00:32:07;;;;;;;;;;;2.50;99.90;;;;;;5069148;28;19951;-59
2021/04/10 00:34:33;;;;;;;;;;;2.70;99.90;;;;;;5073612;28;20368;-59
2021/04/10 00:36:58;;;;;;;;;;;2.80;99.90;;;;;;5059362;28;20422;-59
2021/04/10 00:39:24;;;;;;;;;;;2.90;99.90;;;;;;5069788;28;20387;-60
2021/04/10 00:41:50;;;;;;;;;;;3.20;99.90;;;;;;5062990;28;19919;-59
2021/04/10 00:44:16;;;;;;;;;;;3.00;99.90;;;;;;5055072;28;19917;-60
2021/04/10 00:46:42;;;;;;;;;;;3.00;99.90;;;;;;5055985;28;19923;-59
2021/04/10 00:49:08;;;;;;;;;;;3.10;99.90;;;;;;5055943;28;19920;-59
2021/04/10 00:51:34;;;;;;;;;;;3.10;99.90;;;;;;5056800;28;20258;-59
2021/04/10 00:54:00;;;;;;;;;;;3.10;99.90;;;;;;5071765;28;19908;-59
2021/04/10 00:56:26;;;;;;;;;;;3.00;99.90;;;;;;5073914;28;19909;-59
2021/04/10 00:58:52;;;;;;;;;;;3.00;99.90;;;;;;5059946;28;19916;-59
2021/04/10 01:01:18;;;;;;;;;;;2.90;99.90;;;;;;5062858;28;19915;-59
2021/04/10 01:03:44;;;;;;;;;;;3.00;99.90;;;;;;5059381;28;19916;-59
2021/04/10 01:06:10;;;;;;;;;;;3.10;99.90;;;;;;5058807;28;19930;-59
2021/04/10 01:08:36;;;;;;;;;;;3.20;99.90;;;;;;5059334;28;19915;-59
2021/04/10 01:11:05;;;;;;;;;;;3.20;99.90;;;;;;5054149;28;19913;-59
2021/04/10 01:13:36;;;;;;;;;;;3.10;99.90;;;;;;5056239;28;19915;-59
2021/04/10 01:16:10;;;;;;;;;;;3.20;99.90;;;;;;5055440;28;19913;-59
2021/04/10 01:18:40;;;;;;;;;;;3.20;99.90;;;;;;5056694;28;19916;-59
2021/04/10 01:21:06;;;;;;;;;;;3.10;99.90;;;;;;5058237;28;19908;-58
2021/04/10 01:23:51;;;;;;;;;;;3.00;99.90;;;;;;5074272;28;19931;-58
2021/04/10 01:26:36;;;;;;;;;;;3.10;99.90;;;;;;5057478;28;19909;-59
2021/04/10 01:29:08;;;;;;;;;;;3.10;99.90;;;;;;5066909;28;19912;-59
2021/04/10 01:31:36;;;;;;;;;;;3.20;99.90;;;;;;5062042;28;20289;-59
2021/04/10 01:34:04;;;;;;;;;;;3.20;99.90;;;;;;5055188;28;19913;-59
2021/04/10 01:36:31;;;;;;;;;;;3.20;99.90;;;;;;5064561;28;19908;-59
2021/04/10 01:38:56;;;;;;;;;;;3.20;99.90;;;;;;5063366;28;20381;-59
2021/04/10 01:41:22;;;;;;;;;;;3.10;99.90;;;;;;5070147;28;19947;-60
2021/04/10 01:43:48;;;;;;;;;;;3.20;99.90;;;;;;5071840;28;20426;-59
2021/04/10 01:46:14;;;;;;;;;;;3.20;99.90;;;;;;5071189;28;20812;-59
2021/04/10 01:48:43;;;;;;;;;;;3.20;99.90;;;;;;5073922;28;19938;-58
2021/04/10 01:51:09;;;;;;;;;;;3.30;99.90;;;;;;5072947;28;20293;-59
2021/04/10 01:53:35;;;;;;;;;;;3.20;99.90;;;;;;5062560;28;19912;-60
2021/04/10 01:56:01;;;;;;;;;;;3.40;99.90;;;;;;5053607;28;19952;-59
2021/04/10 01:58:27;;;;;;;;;;;3.40;99.90;;;;;;5066297;28;19916;-59
2021/04/10 02:00:53;;;;;;;;;;;3.50;99.90;;;;;;5059812;28;19992;-59
2021/04/10 02:03:19;;;;;;;;;;;3.40;99.90;;;;;;5060716;28;19916;-59
2021/04/10 02:05:46;;;;;;;;;;;3.40;99.90;;;;;;5067766;28;19908;-59
2021/04/10 02:08:12;;;;;;;;;;;3.50;99.90;;;;;;5071747;28;20384;-59
2021/04/10 02:10:38;;;;;;;;;;;3.40;99.90;;;;;;5058939;28;19908;-59
2021/04/10 02:13:04;;;;;;;;;;;3.40;99.90;;;;;;5060776;28;19991;-59
2021/04/10 02:15:30;;;;;;;;;;;3.40;99.90;;;;;;5055430;28;19948;-60
2021/04/10 02:17:56;;;;;;;;;;;3.40;99.90;;;;;;5053262;28;19931;-59
2021/04/10 02:20:22;;;;;;;;;;;3.30;99.90;;;;;;5069320;28;19908;-60
2021/04/10 02:22:51;;;;;;;;;;;3.30;99.90;;;;;;5071995;28;19921;-59
2021/04/10 02:25:17;;;;;;;;;;;3.10;99.90;;;;;;5064830;28;19909;-59
2021/04/10 02:27:43;;;;;;;;;;;3.00;99.90;;;;;;5059125;28;19923;-60
2021/04/10 02:30:10;;;;;;;;;;;3.00;99.90;;;;;;5053868;28;19913;-60
2021/04/10 02:32:37;;;;;;;;;;;2.90;99.90;;;;;;5067162;28;19915;-59
2021/04/10 02:35:08;;;;;;;;;;;2.80;99.90;;;;;;5062504;28;20372;-59
2021/04/10 02:37:34;;;;;;;;;;;3.00;99.90;;;;;;5061556;28;19915;-60
2021/04/10 02:40:00;;;;;;;;;;;2.90;99.90;;;;;;5060974;28;20360;-60
2021/04/10 02:42:27;;;;;;;;;;;2.80;99.90;;;;;;5075358;28;20272;-60
2021/04/10 02:44:53;;;;;;;;;;;2.80;99.90;;;;;;5063583;28;19917;-59
2021/04/10 02:47:21;;;;;;;;;;;2.70;99.90;;;;;;5070155;28;20336;-59
2021/04/10 02:49:49;;;;;;;;;;;2.80;99.90;;;;;;5071134;28;19912;-60
2021/04/10 02:52:15;;;;;;;;;;;2.80;99.90;;;;;;5067441;28;19909;-59
2021/04/10 02:54:45;;;;;;;;;;;2.80;99.90;;;;;;5052797;28;19911;-60
2021/04/10 02:57:12;;;;;;;;;;;2.80;99.90;;;;;;5070561;28;19916;-60
2021/04/10 02:59:38;;;;;;;;;;;3.00;99.90;;;;;;5053847;28;19917;-60
2021/04/10 03:02:04;;;;;;;;;;;2.90;99.90;;;;;;5053835;28;19908;-59
2021/04/10 03:04:30;;;;;;;;;;;2.90;99.90;;;;;;5062122;28;19916;-59
2021/04/10 03:06:56;;;;;;;;;;;3.00;99.90;;;;;;5053360;28;19913;-60
2021/04/10 03:09:21;;;;;;;;;;;3.10;99.90;;;;;;5061083;28;19908;-60
2021/04/10 03:11:47;;;;;;;;;;;3.10;99.90;;;;;;5042322;28;19916;-60
2021/04/10 03:14:13;;;;;;;;;;;3.20;99.90;;;;;;5053040;28;19938;-59
2021/04/10 03:16:39;;;;;;;;;;;3.20;99.90;;;;;;5056180;28;19908;-59
2021/04/10 03:19:05;;;;;;;;;;;3.20;99.90;;;;;;5063085;28;19916;-59
2021/04/10 03:21:31;;;;;;;;;;;3.20;99.90;;;;;;5070747;28;19923;-60
2021/04/10 03:23:57;;;;;;;;;;;3.20;99.90;;;;;;5072044;28;20245;-60
2021/04/10 03:26:23;;;;;;;;;;;3.30;99.90;;;;;;5062433;28;19920;-60
2021/04/10 03:28:49;;;;;;;;;;;3.30;99.90;;;;;;5053162;28;19913;-59
2021/04/10 03:31:15;;;;;;;;;;;3.30;99.90;;;;;;5059863;28;19924;-60
2021/04/10 03:33:41;;;;;;;;;;;3.30;99.90;;;;;;5050923;28;20277;-59
2021/04/10 03:36:07;;;;;;;;;;;3.50;99.90;;;;;;5054078;28;19916;-60
2021/04/10 03:38:33;;;;;;;;;;;3.40;99.90;;;;;;5060168;28;19913;-59
2021/04/10 03:40:59;;;;;;;;;;;3.50;99.90;;;;;;5052864;28;20007;-59
2021/04/10 03:43:25;;;;;;;;;;;3.40;99.90;;;;;;5053891;28;20293;-60
2021/04/10 03:45:51;;;;;;;;;;;3.60;99.90;;;;;;5051331;28;19908;-59
2021/04/10 03:48:18;;;;;;;;;;;3.60;99.90;;;;;;5072203;28;19920;-59
2021/04/10 03:50:43;;;;;;;;;;;3.50;99.90;;;;;;5071905;28;19923;-60
2021/04/10 03:53:09;;;;;;;;;;;3.40;99.90;;;;;;5068930;28;19916;-60
2021/04/10 03:55:35;;;;;;;;;;;3.50;99.90;;;;;;5060600;28;19912;-60
2021/04/10 03:58:01;;;;;;;;;;;3.60;99.90;;;;;;5066104;28;19912;-59
2021/04/10 04:00:27;;;;;;;;;;;3.50;99.90;;;;;;5074687;28;19924;-60
2021/04/10 04:02:54;;;;;;;;;;;3.60;99.90;;;;;;5078481;28;19916;-60
2021/04/10 04:05:20;;;;;;;;;;;3.40;99.90;;;;;;5070563;28;19915;-60
2021/04/10 04:07:46;;;;;;;;;;;3.50;99.90;;;;;;5077702;28;19916;-60
2021/04/10 04:10:12;;;;;;;;;;;3.30;99.90;;;;;;5065368;28;20297;-60
2021/04/10 04:12:37;;;;;;;;;;;3.40;99.90;;;;;;5058947;28;20358;-60
2021/04/10 04:15:04;;;;;;;;;;;3.30;99.90;;;;;;5067042;28;19916;-60
2021/04/10 04:17:30;;;;;;;;;;;3.40;99.90;;;;;;5063601;28;19908;-59
2021/04/10 04:19:56;;;;;;;;;;;3.30;99.90;;;;;;5092946;28;19919;-60
2021/04/10 04:22:22;;;;;;;;;;;3.40;99.90;;;;;;5060821;28;19999;-60
2021/04/10 04:24:48;;;;;;;;;;;3.50;99.90;;;;;;5063969;28;20015;-59
2021/04/10 04:27:14;;;;;;;;;;;3.50;99.90;;;;;;5062050;28;20403;-60
2021/04/10 04:29:40;;;;;;;;;;;3.60;99.90;;;;;;5059338;28;19913;-59
2021/04/10 04:32:06;;;;;;;;;;;3.60;99.90;;;;;;5060281;28;19924;-60
2021/04/10 04:34:32;;;;;;;;;;;3.60;99.90;;;;;;5068844;28;19921;-59
2021/04/10 04:36:58;;;;;;;;;;;3.50;99.90;;;;;;5066038;28;19912;-60
2021/04/10 04:39:25;;;;;;;;;;;3.60;99.90;;;;;;5078019;28;19920;-59
2021/04/10 04:41:51;;;;;;;;;;;3.60;99.90;;;;;;5069293;28;19923;-59
2021/04/10 04:44:16;;;;;;;;;;;3.60;99.90;;;;;;5075866;28;19960;-60
2021/04/10 04:46:42;;;;;;;;;;;3.80;99.90;;;;;;5078166;28;19920;-60
2021/04/10 04:49:08;;;;;;;;;;;3.70;99.90;;;;;;5062266;28;19912;-60
2021/04/10 04:51:34;;;;;;;;;;;3.70;99.90;;;;;;5059577;28;19943;-59
2021/04/10 04:54:00;;;;;;;;;;;3.90;99.90;;;;;;5052181;28;20003;-59
2021/04/10 04:56:26;;;;;;;;;;;3.90;99.90;;;;;;5058722;28;19913;-60
2021/04/10 04:58:52;;;;;;;;;;;3.90;99.90;;;;;;5078165;28;19912;-59
2021/04/10 05:01:18;;;;;;;;;;;3.90;99.90;;;;;;5071453;28;19920;-60
2021/04/10 05:03:44;;;;;;;;;;;3.80;99.90;;;;;;5060515;28;19924;-60
2021/04/10 05:06:10;;;;;;;;;;;3.70;99.90;;;;;;5068447;28;19920;-59
2021/04/10 05:08:36;;;;;;;;;;;3.70;99.90;;;;;;5074417;28;19947;-59
2021/04/10 05:11:02;;;;;;;;;;;3.70;99.90;;;;;;5073425;28;20011;-59
2021/04/10 05:13:28;;;;;;;;;;;3.60;99.90;;;;;;5066510;28;19960;-59
2021/04/10 05:15:57;;;;;;;;;;;3.70;99.90;;;;;;5060987;28;19924;-59
2021/04/10 05:18:23;;;;;;;;;;;3.80;99.90;;;;;;5055650;28;20281;-59
2021/04/10 05:20:49;;;;;;;;;;;3.80;99.90;;;;;;5060682;28;19912;-60
2021/04/10 05:23:18;;;;;;;;;;;3.90;99.90;;;;;;5074187;28;19912;-59
2021/04/10 05:25:44;;;;;;;;;;;3.90;99.90;;;;;;5074401;28;19920;-59
2021/04/10 05:28:10;;;;;;;;;;;3.90;99.90;;;;;;5058914;28;20400;-59
2021/04/10 05:30:36;;;;;;;;;;;3.80;99.90;;;;;;5056025;28;19920;-59
2021/04/10 05:33:02;;;;;;;;;;;3.90;99.90;;;;;;5055047;28;19913;-59
2021/04/10 05:35:28;;;;;;;;;;;4.00;99.90;;;;;;5066667;28;19923;-60
2021/04/10 05:37:54;;;;;;;;;;;4.10;99.90;;;;;;5073390;28;20011;-60
2021/04/10 05:40:20;;;;;;;;;;;4.20;99.90;;;;;;5063948;28;19916;-60
2021/04/10 05:42:46;;;;;;;;;;;4.40;99.90;;;;;;5074115;28;19978;-60
2021/04/10 05:45:12;;;;;;;;;;;4.50;99.90;;;;;;5070010;28;19912;-60
2021/04/10 05:47:38;;;;;;;;;;;4.50;99.90;;;;;;5054471;28;19920;-60
2021/04/10 05:50:04;;;;;;;706.10;131.57;;;4.50;99.90;;;;;;5057787;28;20193;-60
2021/04/10 05:52:32;;;;;;;7.10;1.25;;;4.50;99.90;;;;;;5069333;28;20636;-60
2021/04/10 05:54:58;;;;;;;12.43;1.15;;;4.60;99.90;;;;;;5071466;28;20193;-60
2021/04/10 05:57:24;;;;;;;10.40;1.10;;;4.60;99.90;;;;;;5056176;28;20544;-60
2021/04/10 05:59:50;;;;;;;9.10;0.93;;;4.60;99.90;;;;;;5059407;28;20205;-60
2021/04/10 06:02:16;;;;;;;12.32;0.88;;;4.60;99.90;;;;;;5063836;28;20178;-59
2021/04/10 06:04:42;;;;;;;6.88;1.10;;;4.50;99.90;;;;;;5069181;28;20674;-60
2021/04/10 06:07:08;;;;;;;8.43;0.95;;;4.50;99.90;;;;;;5055288;28;20187;-60
2021/04/10 06:09:35;;;;;;;10.70;1.00;;;4.50;99.90;;;;;;5053704;28;20179;-60
2021/04/10 06:12:01;;;;;;;6.50;0.80;;;4.40;99.90;;;;;;5054118;28;20191;-60
2021/04/10 06:14:27;;;;;;;9.50;1.52;;;4.60;99.90;;;;;;5063588;28;20193;-60
2021/04/10 06:16:53;;;;;;;13.38;1.05;;;4.70;99.90;;;;;;5072869;28;20185;-60
2021/04/10 06:19:19;;;;;;;9.13;1.02;;;4.80;99.90;;;;;;5061313;28;20178;-60
2021/04/10 06:21:46;;;;;;;9.50;1.23;;;4.90;99.90;;;;;;5059290;28;20641;-60
2021/04/10 06:24:15;;;;;;;9.10;1.20;;;5.10;99.90;;;;;;5069056;28;20210;-60
2021/04/10 06:26:42;;;;;;;9.75;1.27;;;5.00;99.90;;;;;;5064230;28;20657;-60
2021/04/10 06:29:09;;;;;;;21.83;1.73;;;5.00;99.90;;;;;;5065135;28;20653;-59
2021/04/10 06:31:35;;;;;;;14.45;1.25;;;5.10;99.90;;;;;;5062305;28;20210;-60
2021/04/10 06:34:01;;;;;;;;;;;5.30;99.90;;;;;;5073418;28;20039;-60
2021/04/10 06:36:27;;;;;;;;;;;5.50;99.90;;;;;;5073801;28;19904;-60
2021/04/10 06:38:53;;;;;;;;;;;5.40;99.90;;;;;;5071894;28;19908;-60
2021/04/10 06:41:19;;;;;;;;;;;5.30;99.90;;;;;;5067741;28;20274;-60
2021/04/10 06:43:45;;;;;;;;;;;5.40;99.90;;;;;;5073523;28;19913;-60
2021/04/10 06:46:11;;;;;;;;;;;5.20;99.90;;;;;;5073419;28;19926;-59
2021/04/10 06:48:38;;;;;;;;;;;5.20;99.90;;;;;;5073453;28;19908;-59
2021/04/10 06:51:04;;;;;;;;;;;5.20;99.90;;;;;;5073680;28;19928;-60
2021/04/10 06:53:30;;;;;;;;;;;5.30;99.90;;;;;;5068418;28;20441;-60
2021/04/10 06:55:56;;;;;;;;;;;5.50;99.90;;;;;;5083964;28;20296;-60
2021/04/10 06:58:28;;;;;;;;;;;5.50;99.90;;;;;;5071939;28;19913;-60
2021/04/10 07:00:54;;;;;;;;;;;5.60;99.90;;;;;;5073170;28;20253;-60
2021/04/10 07:03:21;;;;;;;;;;;5.70;99.90;;;;;;5055456;28;19978;-60
2021/04/10 07:05:46;;;;;;;;;;;5.80;99.90;;;;;;5072681;28;19911;-60
2021/04/10 07:08:13;;;;;;;;;;;5.80;99.90;;;;;;5055257;28;19904;-59
2021/04/10 07:10:39;;;;;;;;;;;5.80;99.90;;;;;;5069409;28;20284;-60
2021/04/10 07:13:05;;;;;;;;;;;5.70;99.90;;;;;;5058314;28;19920;-60
2021/04/10 07:15:31;;;;;;;;;;;5.80;99.90;;;;;;5053331;28;19987;-60
2021/04/10 07:17:57;;;;;;;;;;;5.70;99.90;;;;;;5079471;28;19908;-60
2021/04/10 07:20:29;;;;;;;;;;;6.10;99.90;;;;;;5073195;28;19904;-59
2021/04/10 07:23:13;;;;;;;;;;;6.30;99.90;;;;;;5071282;28;19908;-60
2021/04/10 07:25:40;;;;;;;;;;;6.50;99.90;;;;;;5072990;28;20281;-61
2021/04/10 07:28:24;;;;;;;;;;;6.60;99.90;;;;;;5072478;28;20371;-61
2021/04/10 07:30:53;;;;;;;;;;;6.70;99.90;;;;;;5072685;28;19916;-61
2021/04/10 07:33:22;;;;;;;;;;;7.00;99.90;;;;;;5073008;28;19919;-61
2021/04/10 07:35:48;;;;;;;;;;;7.20;99.90;;;;;;5069426;28;19919;-62
2021/04/10 07:38:31;;;;;;;;;;;6.90;99.90;;;;;;5071294;28;19908;-61
2021/04/10 07:40:57;;;;;;;;;;;6.60;99.90;;;;;;5071562;28;19915;-61
2021/04/10 07:43:23;;;;;;;;;;;6.60;99.90;;;;;;5068791;28;19909;-61
2021/04/10 07:45:49;;;;;;;;;;;6.60;99.90;;;;;;5072538;28;19909;-61
2021/04/10 07:48:17;;;;;;;;;;;6.60;99.90;;;;;;5070782;28;20284;-61
2021/04/10 07:50:43;;;;;;;;;;;6.60;99.90;;;;;;5072844;28;19916;-61
2021/04/10 07:53:29;;;;;;;;;;;6.70;99.90;;;;;;5053109;28;20285;-60
2021/04/10 07:55:56;;;;;;;;;;;6.80;99.90;;;;;;5052207;28;19906;-61
2021/04/10 07:58:22;;;;;;;;;;;6.90;99.90;;;;;;5067100;28;19919;-61
2021/04/10 08:00:48;;;;;;;;;;;7.00;99.90;;;;;;5072547;28;19932;-61
2021/04/10 08:03:40;;;;;;;;;;;6.90;99.90;;;;;;5060180;28;20427;-60
2021/04/10 08:06:06;;;;;;;;;;;7.10;99.90;;;;;;5069141;28;19927;-60
2021/04/10 08:08:34;;;;;;;;;;;7.30;99.90;;;;;;5072505;28;19990;-61
2021/04/10 08:11:04;;;;;;;;;;;8.00;99.90;;;;;;5072008;28;20350;-60
2021/04/10 08:13:30;;;;;;;;;;;9.00;99.90;;;;;;5072669;28;20340;-60
2021/04/10 08:16:11;;;;;;;;;;;9.20;99.90;;;;;;5073582;28;19908;-61
2021/04/10 08:18:50;;;;;;;;;;;9.60;99.90;;;;;;5057949;28;19909;-61
2021/04/10 08:21:39;;;;;;;;;;;8.90;99.90;;;;;;5056359;28;19909;-60
2021/04/10 08:24:20;;;;;;;;;;;8.00;99.90;;;;;;5048951;28;19917;-60
2021/04/10 08:26:46;;;;;;;;;;;7.90;99.90;;;;;;5063873;28;19908;-60
2021/04/10 08:29:12;;;;;;;;;;;8.20;99.90;;;;;;5058932;28;20285;-60
2021/04/10 08:31:38;;;;;;;;;;;8.00;99.90;;;;;;5060141;28;19916;-60
2021/04/10 08:34:04;;;;;;;;;;;8.30;99.90;;;;;;5071164;28;19917;-60
2021/04/10 08:36:31;;;;;;;;;;;8.10;99.90;;;;;;5066050;28;19916;-60
2021/04/10 08:38:57;;;;;;;;;;;7.70;99.90;;;;;;5055477;28;19915;-60
2021/04/10 08:41:24;;;;;;;;;;;7.50;99.90;;;;;;5057889;28;19917;-60
2021/04/10 08:43:50;;;;;;;;;;;7.60;99.90;;;;;;5074114;28;19916;-60
2021/04/10 08:46:19;;;;;;;;;;;7.60;99.90;;;;;;5062820;28;19961;-61
2021/04/10 08:48:45;;;;;;;;;;;7.60;99.90;;;;;;5065160;28;19924;-60
2021/04/10 08:51:12;;;;;;;;;;;7.10;99.90;;;;;;5060320;28;19920;-60
2021/04/10 08:53:38;;;;;;;;;;;7.00;99.90;;;;;;5063685;28;19923;-60
2021/04/10 08:56:05;;;;;;;;;;;7.20;99.90;;;;;;5064297;28;20365;-60
2021/04/10 08:58:31;;;;;;;;;;;7.20;99.90;;;;;;5067816;28;19913;-61
2021/04/10 09:01:09;;;;;;;;;;;7.20;99.90;;;;;;5068103;28;19927;-61
2021/04/10 09:03:50;;;;;;;;;;;7.30;99.90;;;;;;5065191;28;19912;-60
2021/04/10 09:06:16;;;;;;;;;;;7.50;99.90;;;;;;5062273;28;19913;-60
2021/04/10 09:08:43;;;;;;;;;;;7.70;99.90;;;;;;5070699;28;19909;-60
2021/04/10 09:11:09;;;;;;;;;;;7.90;99.90;;;;;;5074393;28;19908;-60
2021/04/10 09:13:38;;;;;;;;;;;9.30;99.90;;;;;;5069798;28;19908;-60
2021/04/10 09:16:19;;;;;;;;;;;10.00;99.90;;;;;;5064237;28;19913;-60
2021/04/10 09:18:52;;;;;;;;;;;9.50;99.90;;;;;;5061578;28;19915;-60
2021/04/10 09:21:22;;;;;;;;;;;8.80;99.90;;;;;;5066171;28;19979;-60
2021/04/10 09:23:48;;;;;;;;;;;8.70;99.90;;;;;;5062334;28;19916;-60
2021/04/10 09:26:14;;;;;;;;;;;9.50;99.90;;;;;;5066270;28;19917;-60
2021/04/10 09:28:55;;;;;;;;;;;11.00;99.90;;;;;;5054633;28;19913;-59
2021/04/10 09:31:37;;;;;;;;;;;13.00;99.90;;;;;;5061634;28;19917;-60
2021/04/10 09:34:03;;;;;;;;;;;14.60;97.90;;;;;;5053410;28;19909;-60
2021/04/10 09:36:44;;;;;;;;;;;14.40;95.10;;;;;;5062676;28;20391;-60
2021/04/10 09:39:10;;;;;;;;;;;12.70;95.10;;;;;;5054535;28;19909;-60
2021/04/10 09:41:49;;;;;;;;;;;12.20;96.30;;;;;;5062600;28;20331;-60
2021/04/10 09:44:15;;;;;;;;;;;12.30;96.70;;;;;;5064447;28;19932;-60
2021/04/10 09:46:40;;;;;;;;;;;11.30;96.60;;;;;;5052791;28;19909;-60
2021/04/10 09:49:06;;;;;;;;;;;12.30;99.50;;;;;;5057628;28;19912;-60
2021/04/10 09:51:39;;;;;;;;;;;13.10;96.90;;;;;;5076644;28;19916;-60
2021/04/10 09:54:05;;;;;;;;;;;12.40;95.50;;;;;;5061854;28;19917;-60
2021/04/10 09:56:31;;;;;;;;;;;11.70;96.50;;;;;;5061479;28;19909;-60
2021/04/10 09:58:57;;;;;;;;;;;10.80;95.90;;;;;;5060986;28;19932;-60
2021/04/10 10:01:25;;;;;;;;;;;10.30;96.90;;;;;;5074630;28;20293;-61
2021/04/10 10:03:51;;;;;;;;;;;10.10;98.20;;;;;;5059203;28;20317;-60
2021/04/10 10:06:17;;;;;;;;;;;9.60;99.80;;;;;;5059931;28;20003;-60
2021/04/10 10:08:46;;;;;;;;;;;9.80;99.90;;;;;;5056674;28;19930;-60
2021/04/10 10:11:12;;;;;;;;;;;10.90;99.90;;;;;;5072856;28;20261;-60
2021/04/10 10:13:38;;;;;;;;;;;11.00;97.40;;;;;;5069952;28;19916;-64
2021/04/10 10:16:04;;;;;;;;;;;10.40;96.90;;;;;;5071057;28;19916;-59
2021/04/10 10:18:31;;;;;;;;;;;10.60;96.70;;;;;;5059177;28;19931;-60
2021/04/10 10:21:03;;;;;;;;;;;11.40;96.30;;;;;;5053766;28;19920;-61
2021/04/10 10:23:55;;;;;;;;;;;10.80;95.60;;;;;;5054006;28;19905;-60
2021/04/10 10:26:22;;;;;;;;;;;10.70;96.10;;;;;;5066369;28;20247;-60
2021/04/10 10:28:49;;;;;;;;;;;11.10;96.30;;;;;;5063825;28;19912;-60
2021/04/10 10:31:21;;;;;;;;;;;11.50;95.30;;;;;;5063391;28;20385;-60
2021/04/10 10:33:48;;;;;;;;;;;13.40;94.10;;;;;;5072889;28;19908;-60
2021/04/10 10:36:14;;;;;;;;;;;14.50;92.30;;;;;;5060305;28;19919;-60
2021/04/10 10:38:43;;;;;;;;;;;14.60;91.20;;;;;;5061911;28;19916;-60
2021/04/10 10:41:09;;;;;;;;;;;15.90;90.40;;;;;;5054565;28;19916;-61
2021/04/10 10:43:35;;;;;;;;;;;17.80;88.60;;;;;;5052303;28;19912;-60
2021/04/10 10:46:02;;;;;;;;;;;16.80;81.80;;;;;;5062687;28;19916;-60
2021/04/10 10:48:29;;;;;;;;;;;15.70;83.00;;;;;;5059179;28;19917;-60
2021/04/10 10:50:56;;;;;;;;;;;17.40;85.70;;;;;;5072240;28;20474;-60
2021/04/10 10:53:23;;;;;;;;;;;19.00;80.10;;;;;;5072075;28;19919;-60
2021/04/10 10:55:59;;;;;;;;;;;18.40;75.10;;;;;;5071608;28;19931;-61
2021/04/10 10:58:25;;;;;;;;;;;18.70;74.40;;;;;;5054339;28;19923;-60
2021/04/10 11:00:51;;;;;;;;;;;19.30;70.10;;;;;;5059186;28;19947;-60
2021/04/10 11:03:23;;;;;;;;;;;20.80;68.20;;;;;;5050477;28;20372;-60
2021/04/10 11:05:49;;;;;;;;;;;20.00;67.90;;;;;;5067576;28;19920;-60
2021/04/10 11:08:16;;;;;;;;;;;22.10;65.10;;;;;;5057975;28;19912;-60
2021/04/10 11:10:42;;;;;;;;;;;20.30;63.30;;;;;;5064090;28;19927;-61
2021/04/10 11:13:10;;;;;;;;;;;21.00;62.60;;;;;;5067727;28;19909;-61
2021/04/10 11:15:36;;;;;;;;;;;21.00;61.20;;;;;;5060331;28;19908;-60
2021/04/10 11:18:02;;;;;;;;;;;20.50;62.00;;;;;;5058549;28;19905;-60
2021/04/10 11:20:29;;;;;;;;;;;20.40;58.50;;;;;;5053486;28;19920;-60
2021/04/10 11:23:05;;;;;;;;;;;18.50;59.00;;;;;;5061353;28;20352;-60
2021/04/10 11:25:47;;;;;;;;;;;15.80;64.10;;;;;;5064394;28;19920;-60
2021/04/10 11:28:29;;;;;;;;;;;18.50;65.10;;;;;;5066499;28;20357;-60
2021/04/10 11:31:02;;;;;;;;;;;19.10;61.60;;;;;;5069517;28;19920;-60
2021/04/10 11:33:32;;;;;;;;;;;17.60;60.40;;;;;;5060374;28;19913;-60
2021/04/10 11:35:58;;;;;;;;;;;19.50;59.50;;;;;;5050740;28;19920;-60
2021/04/10 11:38:24;;;;;;;;;;;22.20;58.70;;;;;;5050509;28;19913;-61
2021/04/10 11:40:50;;;;;;;;;;;21.90;55.30;;;;;;5065840;28;19912;-60
2021/04/10 11:43:16;;;;;;;;;;;22.40;54.40;;;;;;5053203;28;20388;-60
2021/04/10 11:45:43;;;;;;;;;;;20.80;54.20;;;;;;5056084;28;19967;-60
2021/04/10 11:48:17;;;;;;;;;;;18.50;55.00;;;;;;5064370;28;19909;-60
2021/04/10 11:50:47;;;;;;;;;;;19.60;55.70;;;;;;5058050;28;19916;-60
2021/04/10 11:53:13;;;;;;;;;;;19.30;55.00;;;;;;5065862;28;19909;-60
2021/04/10 11:55:39;;;;;;;;;;;20.70;55.70;;;;;;5056745;28;19909;-60
2021/04/10 11:58:05;;;;;;;;;;;21.90;53.60;;;;;;5071560;28;19916;-61
2021/04/10 12:00:31;;;;;;;;;;;19.00;52.70;;;;;;5077725;28;20363;-62
2021/04/10 12:03:04;;;;;;;;;;;18.40;53.20;;;;;;5053210;28;20015;-60
2021/04/10 12:05:34;;;;;;;;;;;19.40;57.30;;;;;;5052538;28;19921;-61
2021/04/10 12:08:06;;;;;;;;;;;22.60;53.60;;;;;;5070023;28;19915;-61
2021/04/10 12:10:32;;;;;;;;;;;20.60;51.60;;;;;;5067592;28;20296;-61
2021/04/10 12:12:58;;;;;;;;;;;20.20;53.60;;;;;;5053322;28;20003;-61
2021/04/10 12:15:27;;;;;;;;;;;20.20;52.60;;;;;;5063276;28;20288;-61
2021/04/10 12:17:53;;;;;;;;;;;20.60;52.10;;;;;;5070194;28;20276;-61
2021/04/10 12:20:19;;;;;;;;;;;20.20;51.50;;;;;;5070513;28;19966;-62
2021/04/10 12:22:45;;;;;;;;;;;18.60;51.30;;;;;;5069919;28;20351;-62
2021/04/10 12:25:11;;;;;;;;;;;19.00;52.50;;;;;;5064143;28;19971;-61
2021/04/10 12:27:37;;;;;;;;;;;18.00;55.10;;;;;;5087268;28;19932;-61
2021/04/10 12:30:04;;;;;;;;;;;18.40;53.30;;;;;;5067319;28;19920;-61
2021/04/10 12:32:30;;;;;;;;;;;17.60;54.30;;;;;;5059428;28;19919;-61
2021/04/10 12:34:56;;;;;;;;;;;16.10;54.90;;;;;;5070203;28;19955;-61
2021/04/10 12:37:22;;;;;;;;;;;14.40;57.60;;;;;;5061105;28;19942;-60
2021/04/10 12:39:48;;;;;;;;;;;15.40;61.90;;;;;;5056246;28;19917;-61
2021/04/10 12:42:14;;;;;;;;;;;15.10;59.10;;;;;;5063447;28;19916;-61
2021/04/10 12:44:40;;;;;;;;;;;13.60;60.80;;;;;;5068570;28;19967;-51
2021/04/10 12:47:06;;;;;;;;;;;13.10;65.40;;;;;;5068879;28;19923;-53
2021/04/10 12:49:32;;;;;;;;;;;12.40;65.80;;;;;;5070622;28;19913;-54
2021/04/10 12:51:58;;;;;;;;;;;13.40;64.40;;;;;;5059714;28;19920;-56
2021/04/10 12:54:24;;;;;;;;;;;15.00;64.00;;;;;;5062637;28;20344;-55
2021/04/10 12:56:50;;;;;;;;;;;14.00;62.70;;;;;;5062480;28;19920;-53
2021/04/10 12:59:16;;;;;;;;;;;14.20;61.80;;;;;;5071687;28;19923;-53
2021/04/10 13:01:42;;;;;;;;;;;12.60;64.30;;;;;;5065450;28;19919;-50
2021/04/10 13:04:08;;;;;;;;;;;13.50;64.60;;;;;;5070374;28;19915;-55
2021/04/10 13:06:34;;;;;;;;;;;13.50;63.90;;;;;;5055350;28;19928;-53
2021/04/10 13:09:00;;;;;;;;;;;12.60;63.60;;;;;;5058506;28;20288;-53
2021/04/10 13:11:26;;;;;;;;;;;11.00;68.70;;;;;;5071900;28;20365;-54
2021/04/10 13:13:52;;;;;;;;;;;10.80;72.30;;;;;;5066198;28;20379;-54
2021/04/10 13:16:17;;;;;;;;;;;10.50;77.00;;;;;;5064674;28;19913;-54
2021/04/10 13:18:43;;;;;;;;;;;10.70;75.40;;;;;;5061816;28;19908;-54
2021/04/10 13:21:09;;;;;;;;;;;13.70;73.00;;;;;;5079432;28;19956;-55
2021/04/10 13:23:35;;;;;;;;;;;14.70;70.40;;;;;;5064134;28;20634;-54
2021/04/10 13:26:01;;;;;;;;;;;15.40;65.20;;;;;;5072008;28;20392;-53
2021/04/10 13:28:27;;;;;;;;;;;15.70;63.70;;;;;;5071209;28;19913;-54
2021/04/10 13:30:53;;;;;;;;;;;16.60;62.30;;;;;;5055836;28;19932;-55
2021/04/10 13:33:19;;;;;;;;;;;17.20;60.70;;;;;;5059646;28;19919;-55
2021/04/10 13:35:45;;;;;;;;;;;16.30;60.80;;;;;;5063925;28;19924;-52
2021/04/10 13:38:11;;;;;;;;;;;15.70;58.30;;;;;;5069633;28;19916;-54
2021/04/10 13:40:37;;;;;;;;;;;16.30;60.80;;;;;;5065632;28;19935;-54
2021/04/10 13:43:03;;;;;;;;;;;17.70;60.90;;;;;;5063660;28;20379;-56
2021/04/10 13:45:29;;;;;;;;;;;18.10;55.70;;;;;;5062528;28;20368;-56
2021/04/10 13:47:55;;;;;;;;;;;17.00;57.00;;;;;;5073899;28;20321;-54
2021/04/10 13:50:21;;;;;;;;;;;16.90;56.10;;;;;;5072591;28;19932;-56
2021/04/10 13:52:47;;;;;;;;;;;15.50;59.10;;;;;;5072507;28;19920;-56
2021/04/10 13:55:13;;;;;;;;;;;14.40;59.60;;;;;;5062946;28;19916;-56
2021/04/10 13:57:39;;;;;;;;;;;14.80;60.40;;;;;;5070722;28;19912;-55
2021/04/10 14:00:05;;;;;;;;;;;13.10;63.50;;;;;;5054108;28;19917;-55
2021/04/10 14:02:31;;;;;;;;;;;13.50;64.90;;;;;;5054202;28;19920;-54
2021/04/10 14:04:57;;;;;;;;;;;15.00;63.20;;;;;;5056546;28;19924;-52
2021/04/10 14:07:23;;;;;;;;;;;14.00;63.70;;;;;;5073611;28;19908;-52
2021/04/10 14:09:50;;;;;;;;;;;11.80;66.90;;;;;;5074203;28;19911;-55
2021/04/10 14:12:16;;;;;;;;;;;12.00;70.90;;;;;;5066764;28;19909;-54
2021/04/10 14:14:42;;;;;;;;;;;13.30;66.60;;;;;;5055975;28;19908;-54
2021/04/10 14:17:08;;;;;;;;;;;13.80;67.50;;;;;;5070994;28;20331;-53
2021/04/10 14:19:34;;;;;;;;;;;13.00;68.30;;;;;;5064337;28;19920;-55